Time;durP1;ratioP1;P1;durP2;ratioP2;P2;SDS_P1;SDS_P2;PMS_P1;PMS_P2;Temp;Humidity;BMP_temperature;BMP_pressure;BME280_temperature;BME280_humidity;BME280_pressure;Samples;Min_cycle;Max_cycle;Signal;HPM_P1;HPM_P2
2024/03/06 00:02:10;;;;;;;20.70;12.33;;;3.10;99.90;;;;;;5031228;28;20607;-55
2024/03/06 00:04:38;;;;;;;19.53;13.37;;;3.00;99.90;;;;;;5030721;28;20462;-58
2024/03/06 00:07:04;;;;;;;20.50;14.30;;;3.00;99.90;;;;;;5034589;28;20418;-58
2024/03/06 00:09:29;;;;;;;19.67;15.43;;;3.00;99.90;;;;;;5033715;28;20553;-59
2024/03/06 00:11:56;;;;;;;22.10;13.73;;;3.00;99.90;;;;;;5034334;28;20925;-59
2024/03/06 00:14:22;;;;;;;25.33;14.37;;;3.00;99.90;;;;;;5034423;28;20210;-58
2024/03/06 00:16:51;;;;;;;21.90;14.57;;;3.00;99.90;;;;;;5029462;28;20423;-59
2024/03/06 00:19:17;;;;;;;19.00;14.20;;;2.90;99.90;;;;;;5032640;28;20418;-59
2024/03/06 00:21:43;;;;;;;19.67;14.00;;;2.90;99.90;;;;;;5032538;28;20426;-58
2024/03/06 00:24:11;;;;;;;20.07;14.10;;;2.90;99.90;;;;;;5032911;28;20472;-57
2024/03/06 00:26:40;;;;;;;21.27;13.03;;;2.90;99.90;;;;;;5034288;28;20203;-58
2024/03/06 00:29:05;;;;;;;21.37;14.03;;;2.90;99.90;;;;;;5034216;28;20912;-57
2024/03/06 00:31:31;;;;;;;20.47;14.70;;;2.80;99.90;;;;;;5027763;28;20468;-57
2024/03/06 00:33:56;;;;;;;19.83;14.60;;;2.90;99.90;;;;;;5032348;28;20676;-59
2024/03/06 00:36:22;;;;;;;17.53;14.20;;;2.80;99.90;;;;;;5021068;28;20195;-58
2024/03/06 00:38:48;;;;;;;24.87;16.00;;;2.80;99.90;;;;;;5036164;28;20178;-59
2024/03/06 00:41:13;;;;;;;17.20;13.20;;;2.80;99.90;;;;;;5023289;28;20210;-57
2024/03/06 00:43:39;;;;;;;17.30;14.03;;;2.80;99.90;;;;;;5024279;28;20231;-58
2024/03/06 00:46:05;;;;;;;20.77;15.00;;;2.80;99.90;;;;;;5026533;28;20674;-55
2024/03/06 00:48:30;;;;;;;20.27;14.10;;;2.80;99.90;;;;;;5019667;28;20187;-57
2024/03/06 00:50:56;;;;;;;23.20;14.83;;;2.80;99.90;;;;;;5032048;28;20196;-60
2024/03/06 00:53:22;;;;;;;18.13;13.57;;;2.80;99.90;;;;;;5024615;28;20763;-58
2024/03/06 00:55:47;;;;;;;16.67;12.17;;;2.90;99.90;;;;;;5024245;28;20207;-58
2024/03/06 00:58:13;;;;;;;16.47;12.03;;;2.90;99.90;;;;;;5026041;28;20179;-57
2024/03/06 01:00:39;;;;;;;18.67;13.23;;;2.90;99.90;;;;;;5032992;28;20522;-57
2024/03/06 01:03:05;;;;;;;18.17;13.63;;;2.90;99.90;;;;;;5036101;28;20199;-55
2024/03/06 01:05:31;;;;;;;19.53;14.73;;;2.80;99.90;;;;;;5023615;28;20430;-57
2024/03/06 01:07:56;;;;;;;19.50;14.17;;;2.80;99.90;;;;;;5032685;28;20453;-57
2024/03/06 01:10:23;;;;;;;19.63;14.10;;;2.70;99.90;;;;;;5022983;28;20182;-58
2024/03/06 01:12:49;;;;;;;20.80;14.03;;;2.70;99.90;;;;;;5022741;28;20192;-56
2024/03/06 01:15:15;;;;;;;21.27;14.70;;;2.70;99.90;;;;;;5026003;28;20476;-58
2024/03/06 01:17:40;;;;;;;18.50;13.37;;;2.70;99.90;;;;;;5032482;28;20191;-58
2024/03/06 01:20:06;;;;;;;20.03;13.30;;;2.70;99.90;;;;;;5032410;28;20190;-57
2024/03/06 01:22:34;;;;;;;17.23;14.63;;;2.60;99.90;;;;;;5032475;28;20244;-57
2024/03/06 01:25:00;;;;;;;19.80;14.03;;;2.70;99.90;;;;;;5025070;28;20422;-58
2024/03/06 01:27:26;;;;;;;19.93;12.80;;;2.70;99.90;;;;;;5032829;28;20410;-58
2024/03/06 01:29:51;;;;;;;17.13;12.63;;;2.70;99.90;;;;;;5032508;28;20784;-59
2024/03/06 01:32:17;;;;;;;22.27;13.30;;;2.70;99.90;;;;;;5032338;28;20418;-56
2024/03/06 01:34:43;;;;;;;19.33;13.13;;;2.60;99.90;;;;;;5032394;28;20218;-55
2024/03/06 01:37:08;;;;;;;20.83;12.93;;;2.60;99.90;;;;;;5033031;28;20278;-56
2024/03/06 01:39:35;;;;;;;17.70;12.33;;;2.60;99.90;;;;;;5032451;28;20263;-54
2024/03/06 01:42:01;;;;;;;20.33;14.70;;;2.60;99.90;;;;;;5024206;28;20682;-58
2024/03/06 01:44:27;;;;;;;24.60;14.13;;;2.60;99.90;;;;;;5032421;28;20462;-54
2024/03/06 01:46:54;;;;;;;20.13;14.47;;;2.60;99.90;;;;;;5031828;28;20415;-56
2024/03/06 01:49:20;;;;;;;19.83;14.47;;;2.50;99.90;;;;;;5031354;28;20179;-56
2024/03/06 01:51:52;;;;;;;19.87;14.23;;;2.60;99.90;;;;;;5026566;28;20430;-57
2024/03/06 01:54:18;;;;;;;16.33;12.73;;;2.60;99.90;;;;;;5031997;28;20432;-58
2024/03/06 01:56:45;;;;;;;19.10;14.10;;;2.50;99.90;;;;;;5024187;28;20820;-58
2024/03/06 01:59:16;;;;;;;23.40;14.67;;;2.50;99.90;;;;;;5024738;28;20426;-57
2024/03/06 02:01:43;;;;;;;21.70;14.03;;;2.50;99.90;;;;;;5031952;28;20509;-57
2024/03/06 02:04:12;;;;;;;20.63;13.30;;;2.50;99.90;;;;;;5031978;28;20477;-57
2024/03/06 02:06:40;;;;;;;24.97;15.20;;;2.50;99.90;;;;;;5031922;28;20421;-56
2024/03/06 02:09:06;;;;;;;24.40;14.73;;;2.50;99.90;;;;;;5032187;28;20397;-59
2024/03/06 02:11:32;;;;;;;25.83;14.63;;;2.50;99.90;;;;;;5022364;28;20514;-57
2024/03/06 02:13:58;;;;;;;21.50;14.90;;;2.50;99.90;;;;;;5029456;28;20509;-57
2024/03/06 02:16:24;;;;;;;20.77;13.53;;;2.50;99.90;;;;;;5030320;28;20510;-56
2024/03/06 02:18:56;;;;;;;21.03;13.83;;;2.40;99.90;;;;;;5029927;28;20808;-59
2024/03/06 02:21:24;;;;;;;23.60;13.77;;;2.30;99.90;;;;;;5026237;28;20180;-58
2024/03/06 02:23:51;;;;;;;21.60;14.47;;;2.30;99.90;;;;;;5032131;28;20500;-57
2024/03/06 02:26:21;;;;;;;17.90;13.47;;;2.30;99.90;;;;;;5027547;28;20410;-58
2024/03/06 02:28:50;;;;;;;20.60;13.90;;;2.30;99.90;;;;;;5032247;28;20409;-58
2024/03/06 02:31:19;;;;;;;19.50;15.77;;;2.30;99.90;;;;;;5031693;28;20406;-58
2024/03/06 02:33:49;;;;;;;24.73;14.57;;;2.30;99.90;;;;;;5031090;28;20472;-57
2024/03/06 02:36:18;;;;;;;20.77;14.30;;;2.30;99.90;;;;;;5032486;28;20414;-58
2024/03/06 02:38:44;;;;;;;19.97;14.80;;;2.20;99.90;;;;;;5031757;28;20524;-56
2024/03/06 02:41:11;;;;;;;24.27;15.00;;;2.20;99.90;;;;;;5031798;28;20497;-55
2024/03/06 02:43:37;;;;;;;16.00;12.60;;;2.20;99.90;;;;;;5031576;28;20600;-56
2024/03/06 02:46:03;;;;;;;18.90;13.40;;;2.20;99.90;;;;;;5024065;28;20517;-54
2024/03/06 02:48:29;;;;;;;19.10;14.67;;;2.20;99.90;;;;;;5031460;28;20951;-56
2024/03/06 02:50:55;;;;;;;25.00;15.40;;;2.30;99.90;;;;;;5031282;28;20410;-57
2024/03/06 02:53:21;;;;;;;20.10;15.00;;;2.20;99.90;;;;;;5031453;28;20278;-57
2024/03/06 02:55:47;;;;;;;18.80;15.07;;;2.30;99.90;;;;;;5031459;28;20541;-55
2024/03/06 02:58:12;;;;;;;20.53;16.00;;;2.30;99.90;;;;;;5031831;28;20178;-56
2024/03/06 03:00:41;;;;;;;25.00;14.10;;;2.20;99.90;;;;;;5031472;28;20407;-57
2024/03/06 03:03:06;;;;;;;21.03;14.73;;;2.10;99.90;;;;;;5031220;28;20203;-57
2024/03/06 03:05:33;;;;;;;22.50;16.87;;;2.20;99.90;;;;;;5031403;28;20426;-56
2024/03/06 03:07:59;;;;;;;21.97;14.10;;;2.20;99.90;;;;;;5031413;28;20176;-57
2024/03/06 03:10:25;;;;;;;20.70;13.87;;;2.20;99.90;;;;;;5031580;28;20920;-54
2024/03/06 03:12:51;;;;;;;21.13;13.97;;;2.20;99.90;;;;;;5031148;28;20538;-56
2024/03/06 03:15:16;;;;;;;19.80;14.77;;;2.10;99.90;;;;;;5031275;28;20630;-56
2024/03/06 03:17:42;;;;;;;25.63;17.13;;;2.00;99.90;;;;;;5031431;28;20469;-58
2024/03/06 03:20:11;;;;;;;23.97;15.07;;;2.00;99.90;;;;;;5031538;28;20672;-57
2024/03/06 03:22:40;;;;;;;19.17;14.60;;;2.00;99.90;;;;;;5028955;28;20192;-57
2024/03/06 03:25:12;;;;;;;20.47;14.30;;;2.00;99.90;;;;;;5028184;28;20403;-57
2024/03/06 03:27:43;;;;;;;18.30;12.80;;;1.90;99.90;;;;;;5021274;28;20477;-56
2024/03/06 03:30:10;;;;;;;25.50;14.63;;;1.90;99.90;;;;;;5012601;28;20496;-57
2024/03/06 03:32:36;;;;;;;22.10;15.13;;;1.90;99.90;;;;;;5029818;28;20501;-57
2024/03/06 03:35:05;;;;;;;20.07;13.80;;;1.90;99.90;;;;;;5023345;28;20440;-59
2024/03/06 03:37:31;;;;;;;20.73;14.20;;;1.90;99.90;;;;;;5027918;28;20413;-58
2024/03/06 03:39:56;;;;;;;18.00;13.77;;;1.80;99.90;;;;;;5033248;28;20425;-56
2024/03/06 03:42:22;;;;;;;22.80;14.40;;;1.80;99.90;;;;;;5019780;28;20195;-58
2024/03/06 03:44:47;;;;;;;24.37;15.60;;;1.80;99.90;;;;;;5027602;28;20192;-58
2024/03/06 03:47:13;;;;;;;22.43;16.33;;;1.80;99.90;;;;;;5028147;28;20192;-56
2024/03/06 03:49:38;;;;;;;22.67;15.37;;;1.80;99.90;;;;;;5034705;28;20606;-58
2024/03/06 03:52:04;;;;;;;22.63;17.50;;;1.80;99.90;;;;;;5033908;28;20250;-58
2024/03/06 03:54:30;;;;;;;21.77;15.07;;;1.80;99.90;;;;;;5033353;28;20195;-57
2024/03/06 03:56:55;;;;;;;28.83;16.40;;;1.80;99.90;;;;;;5033921;28;20266;-57
2024/03/06 03:59:21;;;;;;;26.43;16.37;;;1.80;99.90;;;;;;5028017;28;20262;-57
2024/03/06 04:01:47;;;;;;;34.97;18.17;;;1.80;99.90;;;;;;5032969;28;20182;-58
2024/03/06 04:04:13;;;;;;;22.07;15.13;;;1.80;99.90;;;;;;5032939;28;20241;-58
2024/03/06 04:06:38;;;;;;;29.70;17.07;;;1.80;99.90;;;;;;5032822;28;20221;-58
2024/03/06 04:09:04;;;;;;;23.23;16.23;;;1.80;99.90;;;;;;5033814;28;20410;-56
2024/03/06 04:11:33;;;;;;;20.73;14.93;;;1.80;99.90;;;;;;5034531;28;20171;-55
2024/03/06 04:13:58;;;;;;;25.57;17.23;;;1.70;99.90;;;;;;5034357;28;20970;-58
2024/03/06 04:16:24;;;;;;;20.47;14.77;;;1.80;99.90;;;;;;5028568;28;20434;-57
2024/03/06 04:18:50;;;;;;;21.70;15.93;;;1.70;99.90;;;;;;5031907;28;20544;-56
2024/03/06 04:21:15;;;;;;;24.13;16.30;;;1.70;99.90;;;;;;5034273;28;20167;-56
2024/03/06 04:23:41;;;;;;;22.33;15.63;;;1.70;99.90;;;;;;5033448;28;20215;-57
2024/03/06 04:26:06;;;;;;;17.13;14.20;;;1.80;99.90;;;;;;5023493;28;20172;-58
2024/03/06 04:28:32;;;;;;;23.53;14.90;;;1.80;99.90;;;;;;5024640;28;20639;-57
2024/03/06 04:30:58;;;;;;;24.37;15.67;;;1.70;99.90;;;;;;5031819;28;20535;-58
2024/03/06 04:33:24;;;;;;;23.47;15.77;;;1.70;99.90;;;;;;5028656;28;20504;-55
2024/03/06 04:35:49;;;;;;;20.50;15.03;;;1.70;99.90;;;;;;5033443;28;20175;-58
2024/03/06 04:38:15;;;;;;;23.87;16.43;;;1.70;99.90;;;;;;5033563;28;20176;-57
2024/03/06 04:40:41;;;;;;;30.40;16.87;;;1.60;99.90;;;;;;5025433;28;20170;-56
2024/03/06 04:43:09;;;;;;;25.30;17.27;;;1.60;99.90;;;;;;5031869;28;20200;-57
2024/03/06 04:45:35;;;;;;;33.23;18.60;;;1.60;99.90;;;;;;5032290;28;20178;-57
2024/03/06 04:48:00;;;;;;;23.60;16.77;;;1.70;99.90;;;;;;5032028;28;20406;-57
2024/03/06 04:50:27;;;;;;;20.43;15.37;;;1.60;99.90;;;;;;5032531;28;20638;-57
2024/03/06 04:52:53;;;;;;;26.63;15.90;;;1.60;99.90;;;;;;5033791;28;20736;-56
2024/03/06 04:55:20;;;;;;;23.13;16.60;;;1.60;99.90;;;;;;5028631;28;20823;-56
2024/03/06 04:57:46;;;;;;;23.33;16.67;;;1.60;99.90;;;;;;5031777;28;20517;-55
2024/03/06 05:00:12;;;;;;;25.43;16.23;;;1.70;99.90;;;;;;5033645;28;20956;-55
2024/03/06 05:02:38;;;;;;;22.27;15.30;;;1.60;99.90;;;;;;5033237;28;20188;-55
2024/03/06 05:05:04;;;;;;;23.30;16.30;;;1.60;99.90;;;;;;5033584;28;20417;-57
2024/03/06 05:07:31;;;;;;;22.57;15.30;;;1.60;99.90;;;;;;5033724;28;20418;-56
2024/03/06 05:09:58;;;;;;;22.50;15.60;;;1.60;99.90;;;;;;5033310;28;20733;-56
2024/03/06 05:12:24;;;;;;;21.43;15.90;;;1.70;99.90;;;;;;5057556;22;20484;-65
2024/03/06 05:14:51;;;;;;;22.40;16.10;;;1.60;99.90;;;;;;5052096;28;20827;-64
2024/03/06 05:17:17;;;;;;;26.30;15.47;;;1.60;99.90;;;;;;5052645;28;20932;-66
2024/03/06 05:19:43;;;;;;;26.40;16.40;;;1.60;99.90;;;;;;5052837;28;20422;-66
2024/03/06 05:22:08;;;;;;;27.90;18.10;;;1.60;99.90;;;;;;5052044;28;20993;-67
2024/03/06 05:24:34;;;;;;;22.73;15.63;;;1.60;99.90;;;;;;5052699;28;20794;-65
2024/03/06 05:27:00;;;;;;;29.00;18.30;;;1.60;99.90;;;;;;5052078;28;20179;-65
2024/03/06 05:29:26;;;;;;;30.20;17.47;;;1.60;99.90;;;;;;5052334;28;20209;-66
2024/03/06 05:31:51;;;;;;;27.73;18.50;;;1.60;99.90;;;;;;5052008;28;20199;-65
2024/03/06 05:34:17;;;;;;;25.47;17.40;;;1.50;99.90;;;;;;5052332;28;20463;-65
2024/03/06 05:36:43;;;;;;;28.17;17.27;;;1.50;99.90;;;;;;5052344;28;20254;-65
2024/03/06 05:39:12;;;;;;;33.83;19.60;;;1.50;99.90;;;;;;5051919;28;20308;-66
2024/03/06 05:41:39;;;;;;;25.50;16.30;;;1.40;99.90;;;;;;5052115;28;20433;-66
2024/03/06 05:44:04;;;;;;;26.80;18.77;;;1.40;99.90;;;;;;5051864;28;20528;-66
2024/03/06 05:46:30;;;;;;;30.53;16.37;;;1.50;99.90;;;;;;5052033;28;20520;-66
2024/03/06 05:48:55;;;;;;;24.20;17.83;;;1.50;99.90;;;;;;5051904;28;20187;-66
2024/03/06 05:51:21;;;;;;;25.63;19.20;;;1.50;99.90;;;;;;5050676;28;20179;-66
2024/03/06 05:53:47;;;;;;;26.03;17.83;;;1.50;99.90;;;;;;5051861;28;20549;-66
2024/03/06 05:56:12;;;;;;;25.20;18.13;;;1.50;99.90;;;;;;5040413;28;20179;-65
2024/03/06 05:58:38;;;;;;;27.97;18.40;;;1.50;99.90;;;;;;5047784;28;20179;-66
2024/03/06 06:01:03;;;;;;;24.73;16.93;;;1.50;99.90;;;;;;5036455;28;22967;-65
2024/03/06 06:03:30;;;;;;;25.63;18.70;;;1.50;99.90;;;;;;5042275;28;20203;-66
2024/03/06 06:05:56;;;;;;;26.67;16.40;;;1.50;99.90;;;;;;5033477;28;20250;-66
2024/03/06 06:08:22;;;;;;;35.17;17.27;;;1.60;99.90;;;;;;5033494;28;20448;-66
2024/03/06 06:10:48;;;;;;;28.30;19.33;;;1.60;99.90;;;;;;5039881;28;20472;-66
2024/03/06 06:13:14;;;;;;;28.07;18.00;;;1.60;99.90;;;;;;5032141;28;20454;-67
2024/03/06 06:15:40;;;;;;;33.43;19.83;;;1.70;99.90;;;;;;5032667;28;20608;-63
2024/03/06 06:18:05;;;;;;;26.03;18.60;;;1.70;99.90;;;;;;5032206;28;20487;-67
2024/03/06 06:20:31;;;;;;;27.83;19.37;;;1.80;99.90;;;;;;5036565;28;20179;-66
2024/03/06 06:22:57;;;;;;;25.80;18.30;;;1.80;99.90;;;;;;5040657;28;20210;-65
2024/03/06 06:25:23;;;;;;;29.63;19.30;;;1.80;99.90;;;;;;5034922;28;20179;-64
2024/03/06 06:27:49;;;;;;;30.83;19.50;;;1.90;99.90;;;;;;5032119;28;20500;-67
2024/03/06 06:30:15;;;;;;;30.80;18.20;;;2.00;99.90;;;;;;5041777;28;20178;-66
2024/03/06 06:32:42;;;;;;;30.23;20.50;;;2.00;99.90;;;;;;5035565;28;20470;-65
2024/03/06 06:35:09;;;;;;;28.90;17.50;;;2.10;99.90;;;;;;5031723;28;20425;-66
2024/03/06 06:37:35;;;;;;;27.50;18.70;;;2.20;99.90;;;;;;5032340;28;20426;-67
2024/03/06 06:40:06;;;;;;;26.70;19.83;;;2.30;99.90;;;;;;5031323;28;20418;-62
2024/03/06 06:42:35;;;;;;;28.37;18.30;;;2.40;99.90;;;;;;5032060;28;20830;-65
2024/03/06 06:45:01;;;;;;;26.97;18.20;;;2.60;99.90;;;;;;5032858;28;20418;-67
2024/03/06 06:47:28;;;;;;;29.30;19.47;;;2.90;99.90;;;;;;5038148;28;20422;-64
2024/03/06 06:49:53;;;;;;;26.03;17.10;;;3.00;99.90;;;;;;5032171;28;20422;-66
2024/03/06 06:52:19;;;;;;;24.17;15.80;;;3.30;99.90;;;;;;5042642;28;20442;-66
2024/03/06 06:54:45;;;;;;;26.07;17.47;;;3.70;99.90;;;;;;5035564;28;20262;-66
2024/03/06 06:57:10;;;;;;;25.53;15.07;;;4.10;99.90;;;;;;5032562;28;20587;-66
2024/03/06 06:59:36;;;;;;;24.63;17.40;;;4.30;99.90;;;;;;5033469;28;20183;-66
2024/03/06 07:02:02;;;;;;;20.10;14.90;;;4.50;99.90;;;;;;5041343;28;20210;-65
2024/03/06 07:04:28;;;;;;;17.00;13.57;;;4.60;99.90;;;;;;5036789;28;20181;-66
2024/03/06 07:06:54;;;;;;;18.70;14.57;;;4.90;99.90;;;;;;5033484;28;20419;-68
2024/03/06 07:09:20;;;;;;;18.93;13.33;;;5.20;99.90;;;;;;5033686;28;20172;-65
2024/03/06 07:11:45;;;;;;;18.27;12.03;;;5.30;99.90;;;;;;5036889;28;20227;-72
2024/03/06 07:14:14;;;;;;;20.20;12.13;;;5.50;99.90;;;;;;5036273;28;20176;-67
2024/03/06 07:16:44;;;;;;;15.93;12.70;;;5.50;99.90;;;;;;5047366;28;20395;-66
2024/03/06 07:19:09;;;;;;;18.00;13.37;;;5.40;99.90;;;;;;5039816;28;20416;-67
2024/03/06 07:21:35;;;;;;;15.33;11.87;;;5.70;99.90;;;;;;5036984;28;20460;-67
2024/03/06 07:24:01;;;;;;;16.10;12.40;;;6.00;99.90;;;;;;5031342;28;20290;-67
2024/03/06 07:26:29;;;;;;;14.30;11.80;;;6.10;99.90;;;;;;5038987;28;20485;-65
2024/03/06 07:28:55;;;;;;;15.57;13.87;;;6.20;99.90;;;;;;5037726;28;20207;-65
2024/03/06 07:31:21;;;;;;;19.40;12.97;;;7.50;99.90;;;;;;5027689;28;20997;-65
2024/03/06 07:33:46;;;;;;;14.57;12.10;;;8.40;99.90;;;;;;5042326;28;20191;-64
2024/03/06 07:36:12;;;;;;;16.40;12.50;;;7.70;99.90;;;;;;5048291;28;20856;-67
2024/03/06 07:38:38;;;;;;;20.70;12.60;;;7.70;99.90;;;;;;5046663;28;20183;-66
2024/03/06 07:41:03;;;;;;;11.73;10.20;;;7.80;99.90;;;;;;5049635;28;20183;-65
2024/03/06 07:43:29;;;;;;;13.57;12.17;;;8.10;99.90;;;;;;5049874;28;20483;-66
2024/03/06 07:45:55;;;;;;;13.43;10.10;;;8.10;99.90;;;;;;5048538;28;20207;-65
2024/03/06 07:48:21;;;;;;;15.00;12.07;;;8.60;99.90;;;;;;5050626;28;20171;-66
2024/03/06 07:50:46;;;;;;;13.47;11.53;;;8.70;99.90;;;;;;5042630;28;20510;-66
2024/03/06 07:53:12;;;;;;;12.10;10.13;;;8.70;99.90;;;;;;5044244;28;20206;-65
2024/03/06 07:55:38;;;;;;;14.40;11.00;;;8.40;99.90;;;;;;5042542;28;20199;-64
2024/03/06 07:58:04;;;;;;;11.17;9.77;;;8.20;99.90;;;;;;5048016;28;20207;-66
2024/03/06 08:00:31;;;;;;;12.53;9.30;;;8.60;99.90;;;;;;5034104;28;20427;-65
2024/03/06 08:02:57;;;;;;;10.80;9.40;;;8.80;99.90;;;;;;5039804;28;20860;-65
2024/03/06 08:05:22;;;;;;;10.23;8.83;;;8.80;99.90;;;;;;5040215;28;20506;-65
2024/03/06 08:07:48;;;;;;;12.33;9.40;;;8.80;99.90;;;;;;5041970;28;20173;-64
2024/03/06 08:10:14;;;;;;;13.33;9.93;;;8.90;99.90;;;;;;5046700;28;20184;-65
2024/03/06 08:12:44;;;;;;;11.20;9.93;;;9.30;99.90;;;;;;5041490;28;20224;-64
2024/03/06 08:15:11;;;;;;;11.70;9.90;;;10.00;99.90;;;;;;5044389;28;20436;-65
2024/03/06 08:17:39;;;;;;;9.63;8.63;;;9.90;99.90;;;;;;5041930;28;21313;-67
2024/03/06 08:20:07;;;;;;;9.53;8.20;;;10.20;99.90;;;;;;5039738;28;20948;-65
2024/03/06 08:22:38;;;;;;;10.50;8.90;;;9.90;99.90;;;;;;5035259;28;20860;-67
2024/03/06 08:25:05;;;;;;;10.00;8.10;;;10.30;99.90;;;;;;5041135;28;20598;-64
2024/03/06 08:27:31;;;;;;;10.73;9.20;;;10.30;99.90;;;;;;5051108;28;20474;-70
2024/03/06 08:29:57;;;;;;;19.63;15.90;;;10.30;99.90;;;;;;5048354;28;20504;-66
2024/03/06 08:32:22;;;;;;;10.63;8.13;;;9.90;99.90;;;;;;5051642;28;20201;-63
2024/03/06 08:34:48;;;;;;;9.70;8.30;;;9.70;99.90;;;;;;5050518;28;20241;-65
2024/03/06 08:37:13;;;;;;;10.97;8.87;;;10.10;99.90;;;;;;5051564;28;20248;-65
2024/03/06 08:39:39;;;;;;;9.73;7.93;;;10.80;99.90;;;;;;5053306;28;20655;-66
2024/03/06 08:42:05;;;;;;;8.37;7.23;;;11.90;99.90;;;;;;5053018;28;20199;-66
2024/03/06 08:44:30;;;;;;;9.37;8.43;;;12.60;99.90;;;;;;5053456;28;20280;-65
2024/03/06 08:46:56;;;;;;;9.83;7.60;;;12.40;99.90;;;;;;5047192;28;20183;-60
2024/03/06 08:49:21;;;;;;;9.53;8.37;;;12.30;99.90;;;;;;5046688;28;20183;-66
2024/03/06 08:51:47;;;;;;;8.43;6.87;;;13.20;99.90;;;;;;5052980;28;20201;-65
2024/03/06 08:54:13;;;;;;;8.10;7.20;;;13.80;99.90;;;;;;5052384;28;20191;-67
2024/03/06 08:56:38;;;;;;;8.23;7.20;;;14.80;99.90;;;;;;5051221;28;20622;-62
2024/03/06 08:59:04;;;;;;;9.27;6.90;;;14.10;98.70;;;;;;5050889;28;20513;-66
2024/03/06 09:01:29;;;;;;;9.43;7.67;;;14.80;99.10;;;;;;5037191;28;20239;-66
2024/03/06 09:03:57;;;;;;;9.83;7.70;;;12.80;99.90;;;;;;5047911;28;20210;-66
2024/03/06 09:06:22;;;;;;;10.00;7.50;;;12.20;99.90;;;;;;5046521;28;20195;-64
2024/03/06 09:08:48;;;;;;;10.60;7.13;;;12.80;99.90;;;;;;5044219;28;20491;-64
2024/03/06 09:11:14;;;;;;;8.17;7.23;;;13.10;99.90;;;;;;5044378;28;20177;-65
2024/03/06 09:13:39;;;;;;;7.67;6.87;;;13.00;99.70;;;;;;5040175;28;20195;-65
2024/03/06 09:16:05;;;;;;;8.53;7.00;;;13.60;99.20;;;;;;5049974;28;20184;-65
2024/03/06 09:18:31;;;;;;;9.17;7.73;;;13.20;99.70;;;;;;5052885;28;20265;-65
2024/03/06 09:20:56;;;;;;;7.53;6.83;;;14.00;99.90;;;;;;5046986;28;20794;-64
2024/03/06 09:23:22;;;;;;;9.63;7.20;;;14.30;98.30;;;;;;5041354;28;20205;-66
2024/03/06 09:25:48;;;;;;;9.37;7.40;;;14.90;96.60;;;;;;5041578;28;20204;-66
2024/03/06 09:28:14;;;;;;;7.57;6.80;;;15.50;95.20;;;;;;5036092;28;20176;-66
2024/03/06 09:30:41;;;;;;;7.60;6.80;;;15.80;94.10;;;;;;5035462;28;20206;-66
2024/03/06 09:33:07;;;;;;;15.60;11.30;;;13.90;94.50;;;;;;5034730;28;20200;-66
2024/03/06 09:35:32;;;;;;;6.60;6.00;;;13.60;96.30;;;;;;5039367;28;20945;-66
2024/03/06 09:37:58;;;;;;;6.73;6.03;;;12.90;95.20;;;;;;5038012;28;20179;-66
2024/03/06 09:40:24;;;;;;;9.00;7.30;;;11.40;97.90;;;;;;5032143;28;20180;-65
2024/03/06 09:42:51;;;;;;;8.13;6.60;;;10.90;99.90;;;;;;5036728;28;20215;-66
2024/03/06 09:45:17;;;;;;;8.33;6.80;;;10.60;99.90;;;;;;5037001;28;20178;-65
2024/03/06 09:47:44;;;;;;;9.40;8.50;;;9.80;99.90;;;;;;5040280;28;20468;-66
2024/03/06 09:50:10;;;;;;;10.77;8.67;;;9.60;99.90;;;;;;5042523;28;20935;-65
2024/03/06 09:52:36;;;;;;;9.47;8.43;;;8.80;99.90;;;;;;5034662;28;20573;-65
2024/03/06 09:55:03;;;;;;;9.80;8.07;;;8.60;99.90;;;;;;5034637;28;20426;-65
2024/03/06 09:57:30;;;;;;;9.23;7.97;;;8.40;99.90;;;;;;5038149;28;20510;-66
2024/03/06 09:59:56;;;;;;;8.60;7.63;;;8.50;99.90;;;;;;5037829;28;20462;-64
2024/03/06 10:02:38;;;;;;;11.77;8.30;;;8.40;99.90;;;;;;5040206;28;20515;-66
2024/03/06 10:05:05;;;;;;;16.20;7.93;;;8.20;99.90;;;;;;5034347;28;20422;-65
2024/03/06 10:07:31;;;;;;;13.33;8.50;;;8.40;99.90;;;;;;5044251;28;20935;-65
2024/03/06 10:09:56;;;;;;;12.30;9.03;;;8.30;99.90;;;;;;5036425;28;20406;-65
2024/03/06 10:12:22;;;;;;;8.57;7.67;;;8.60;99.90;;;;;;5045548;28;20807;-66
2024/03/06 10:14:52;;;;;;;9.50;6.97;;;8.30;99.90;;;;;;5046563;28;20195;-64
2024/03/06 10:17:26;;;;;;;10.27;7.60;;;8.50;99.90;;;;;;5043968;28;20182;-65
2024/03/06 10:19:52;;;;;;;9.17;7.40;;;8.60;99.90;;;;;;5043919;28;20422;-64
2024/03/06 10:22:20;;;;;;;8.07;7.27;;;8.40;99.90;;;;;;5025537;28;20461;-65
2024/03/06 10:24:47;;;;;;;11.63;9.63;;;8.60;99.90;;;;;;5039390;28;20191;-63
2024/03/06 10:27:19;;;;;;;9.43;8.50;;;8.60;99.90;;;;;;5042538;28;20448;-65
2024/03/06 10:29:44;;;;;;;7.90;7.07;;;8.60;99.90;;;;;;5035488;28;20510;-62
2024/03/06 10:32:11;;;;;;;7.57;6.70;;;8.60;99.90;;;;;;5044440;28;21013;-65
2024/03/06 10:34:38;;;;;;;8.50;7.00;;;8.40;99.90;;;;;;5041169;28;20185;-65
2024/03/06 10:37:04;;;;;;;13.23;6.67;;;8.20;99.90;;;;;;5036841;28;20425;-63
2024/03/06 10:39:38;;;;;;;8.43;6.10;;;8.20;99.90;;;;;;5041531;28;20448;-67
2024/03/06 10:42:08;;;;;;;10.60;8.13;;;7.90;99.90;;;;;;5042958;28;20502;-65
2024/03/06 10:44:34;;;;;;;12.40;8.80;;;7.80;99.90;;;;;;5035517;28;20457;-65
2024/03/06 10:47:02;;;;;;;10.60;8.57;;;7.60;99.90;;;;;;5037999;28;20440;-61
2024/03/06 10:49:29;;;;;;;9.47;8.27;;;7.40;99.90;;;;;;5040421;28;20410;-64
2024/03/06 10:52:04;;;;;;;10.60;8.80;;;7.30;99.90;;;;;;5042501;28;20431;-64
2024/03/06 10:54:34;;;;;;;11.63;9.07;;;7.40;99.90;;;;;;5046457;28;20414;-66
2024/03/06 10:57:00;;;;;;;10.27;8.80;;;7.60;99.90;;;;;;5038697;28;20472;-66
2024/03/06 10:59:27;;;;;;;9.57;8.57;;;7.60;99.90;;;;;;5040743;28;20418;-64
2024/03/06 11:01:55;;;;;;;11.87;9.10;;;7.70;99.90;;;;;;5041682;28;20924;-65
2024/03/06 11:04:26;;;;;;;10.67;8.57;;;8.00;99.90;;;;;;5048423;28;20426;-64
2024/03/06 11:06:52;;;;;;;9.13;7.87;;;8.00;99.90;;;;;;5048861;28;20420;-65
2024/03/06 11:09:18;;;;;;;9.30;7.63;;;7.80;99.90;;;;;;5047364;28;20939;-65
2024/03/06 11:11:52;;;;;;;9.67;8.00;;;7.70;99.90;;;;;;5049821;28;20464;-64
2024/03/06 11:14:18;;;;;;;10.10;8.00;;;7.60;99.90;;;;;;5050730;28;20427;-65
2024/03/06 11:17:10;;;;;;;9.57;7.83;;;7.60;99.90;;;;;;5052222;23;20410;-55
2024/03/06 11:20:06;;;;;;;12.83;10.07;;;7.70;99.90;;;;;;4968948;28;20450;-58
2024/03/06 11:22:59;;;;;;;10.97;9.30;;;7.60;99.90;;;;;;4970130;28;20798;-55
2024/03/06 11:28:20;;;;;;;12.20;9.90;;;8.20;99.90;;;;;;4948016;28;20841;-59
2024/03/06 11:30:59;;;;;;;15.43;12.50;;;8.20;99.90;;;;;;4943948;28;20454;-58
2024/03/06 11:33:35;;;;;;;17.13;11.10;;;8.30;99.90;;;;;;4942320;28;20419;-59
2024/03/06 11:36:22;;;;;;;13.53;11.07;;;8.40;99.90;;;;;;4951405;28;20426;-59
2024/03/06 11:39:07;;;;;;;13.50;11.63;;;8.10;99.90;;;;;;4938842;28;21036;-57
2024/03/06 11:41:52;;;;;;;13.87;11.30;;;8.00;99.90;;;;;;4933561;28;20528;-60
2024/03/06 11:44:26;;;;;;;18.00;11.50;;;8.00;99.90;;;;;;4939936;28;20543;-59
2024/03/06 11:47:08;;;;;;;18.10;14.73;;;7.90;99.90;;;;;;4938673;28;20453;-59
2024/03/06 11:49:36;;;;;;;15.80;12.17;;;8.00;99.90;;;;;;4940024;28;20522;-60
2024/03/06 11:52:08;;;;;;;15.67;13.10;;;8.10;99.90;;;;;;4941721;28;20515;-60
2024/03/06 11:54:33;;;;;;;18.77;15.23;;;8.40;99.90;;;;;;4937962;28;20983;-60
2024/03/06 11:57:01;;;;;;;16.80;14.57;;;8.10;99.90;;;;;;4949935;28;20438;-59
2024/03/06 11:59:30;;;;;;;17.37;14.40;;;7.90;99.90;;;;;;4950737;28;20186;-59
2024/03/06 12:01:57;;;;;;;16.60;14.87;;;7.90;99.90;;;;;;4934305;28;20437;-65
2024/03/06 12:04:24;;;;;;;18.40;13.93;;;7.90;99.90;;;;;;4930323;28;20476;-63
2024/03/06 12:06:50;;;;;;;16.83;13.10;;;8.50;99.90;;;;;;4951033;28;20514;-60
2024/03/06 12:09:16;;;;;;;14.30;12.37;;;9.00;99.90;;;;;;4952575;28;20420;-59
2024/03/06 12:11:45;;;;;;;19.97;12.37;;;9.00;99.90;;;;;;4953350;28;20440;-63
2024/03/06 12:14:29;;;;;;;12.90;11.50;;;8.90;99.90;;;;;;4952967;28;20516;-61
2024/03/06 12:16:59;;;;;;;13.27;7.80;;;8.80;99.90;;;;;;4948980;28;20453;-61
2024/03/06 12:19:37;;;;;;;10.40;8.67;;;8.80;99.90;;;;;;4955041;28;20425;-62
2024/03/06 12:22:05;;;;;;;15.30;9.00;;;8.60;99.90;;;;;;4941100;28;20449;-62
2024/03/06 12:24:31;;;;;;;15.70;12.07;;;8.70;99.90;;;;;;4939132;28;20436;-57
2024/03/06 12:27:03;;;;;;;17.00;13.40;;;8.90;99.90;;;;;;4944459;28;20460;-56
2024/03/06 12:29:32;;;;;;;9.83;8.90;;;9.10;99.90;;;;;;4946628;28;20448;-60
2024/03/06 12:31:58;;;;;;;10.80;8.50;;;9.10;99.90;;;;;;4938786;28;20916;-59
2024/03/06 12:34:24;;;;;;;9.93;8.80;;;9.00;99.90;;;;;;4944185;28;20580;-57
2024/03/06 12:36:50;;;;;;;10.30;7.67;;;8.90;99.90;;;;;;4940299;28;20882;-62
2024/03/06 12:39:23;;;;;;;9.77;8.77;;;8.90;99.90;;;;;;4944998;28;20217;-60
2024/03/06 12:41:50;;;;;;;12.50;9.20;;;8.70;99.90;;;;;;4943195;28;20981;-59
2024/03/06 12:44:15;;;;;;;15.00;7.97;;;8.70;99.90;;;;;;4944188;28;20497;-64